Ada, Ohio
Current Conditions -  °F | °C
As of 11:04 PM on Friday 19 Dec 2014 (Local Time) from KAOH Reporting Station
Haze Haze  
Wind Chill: 22°   Ceiling: 2800
Heat Index: 27°   Visibility: 6mi
Dew Point: 21°   Wind: 5mph
Humidity: 78%   Direction: 140°SE
Pressure: 30.25"   Gusts: NA
Location:  40.78°N, 83.82°W
Report Text: KAOH 200404Z AUTO 14004KT 6SM HZ BKN028 M03/M06 A3025 RMK AO2 T10281061
Loading
Personal Weather Stations






























Interactive Weather Map New forecast layout! Learn more

10-Day Weather Forecast

Advertisements
Track Severe Weather on mobile